createdAt,value
2023-02-11T00:00:00.154Z,1015.33
2023-02-11T00:05:00.159Z,1015.25
2023-02-11T00:10:00.167Z,1015.22
2023-02-11T00:15:00.116Z,1014.99
2023-02-11T00:20:00.111Z,1014.72
2023-02-11T00:25:00.145Z,1014.57
2023-02-11T00:30:00.122Z,1014.4
2023-02-11T00:35:00.119Z,1014.46
2023-02-11T00:40:00.125Z,1014.33
2023-02-11T00:45:00.130Z,1014.3
2023-02-11T00:50:00.112Z,1014.36
2023-02-11T00:55:00.123Z,1014.4
2023-02-11T01:00:00.146Z,1014.34
2023-02-11T01:05:00.225Z,1014.19
2023-02-11T01:10:00.166Z,1014.3
2023-02-11T01:15:00.111Z,1014.17
2023-02-11T01:20:00.122Z,1014.13
2023-02-11T01:25:00.127Z,1014.06
2023-02-11T01:30:00.596Z,1014.06
2023-02-11T01:35:00.556Z,1013.99
2023-02-11T01:40:00.533Z,1013.98
2023-02-11T01:45:00.166Z,1013.91
2023-02-11T01:50:00.552Z,1013.94
2023-02-11T01:55:00.129Z,1014.01
2023-02-11T02:00:00.228Z,1013.98
2023-02-11T02:05:00.135Z,1013.98
2023-02-11T02:10:00.560Z,1014.08
2023-02-11T02:15:00.551Z,1013.99
2023-02-11T02:20:00.128Z,1014.05
2023-02-11T02:25:00.138Z,1014.06
2023-02-11T02:30:00.586Z,1014.02
2023-02-11T02:35:00.119Z,1013.88
2023-02-11T02:40:00.134Z,1013.68
2023-02-11T02:45:00.146Z,1013.69
2023-02-11T02:50:00.560Z,1013.59
2023-02-11T02:55:00.138Z,1013.64
2023-02-11T03:00:00.598Z,1013.5
2023-02-11T03:05:00.572Z,1013.49
2023-02-11T03:10:00.567Z,1013.67
2023-02-11T03:15:00.119Z,1013.6
2023-02-11T03:20:00.526Z,1013.57
2023-02-11T03:25:00.595Z,1013.5
2023-02-11T03:30:00.149Z,1013.26
2023-02-11T03:35:00.535Z,1013.15
2023-02-11T03:40:00.566Z,1013.18
2023-02-11T03:45:00.136Z,1013.17
2023-02-11T03:50:00.695Z,1013.27
2023-02-11T03:55:00.580Z,1013.15
2023-02-11T04:00:00.568Z,1013.12
2023-02-11T04:05:00.591Z,1013.18
2023-02-11T04:10:00.536Z,1013.16
2023-02-11T04:15:00.146Z,1013.06
2023-02-11T04:20:00.121Z,1013
2023-02-11T04:25:00.411Z,1012.26
2023-02-11T04:30:00.147Z,1012.42
2023-02-11T04:35:00.134Z,1012.4
2023-02-11T04:40:00.566Z,1012.36
2023-02-11T04:45:00.574Z,1012.28
2023-02-11T04:50:00.136Z,1012.28
2023-02-11T04:55:00.124Z,1012.35
2023-02-11T05:00:00.574Z,1012.24
2023-02-11T05:05:00.151Z,1012.33
2023-02-11T05:10:00.550Z,1012.33
2023-02-11T05:15:00.711Z,1012.37
2023-02-11T05:20:00.551Z,1012.31
2023-02-11T05:25:00.580Z,1012.26
2023-02-11T05:30:00.188Z,1012.16
2023-02-11T05:35:00.140Z,1012.11
2023-02-11T05:40:00.746Z,1012.15
2023-02-11T05:45:00.688Z,1012.17
2023-02-11T05:50:00.125Z,1012.3
2023-02-11T05:55:00.110Z,1012.29
2023-02-11T06:00:00.636Z,1012.23
2023-02-11T06:05:00.158Z,1012.24
2023-02-11T06:10:00.540Z,1012
2023-02-11T06:15:00.557Z,1012.05
2023-02-11T06:20:00.129Z,1012.14
2023-02-11T06:25:01.941Z,1012.01
2023-02-11T06:30:00.654Z,1011.88
2023-02-11T06:35:00.111Z,1011.97
2023-02-11T06:40:00.538Z,1011.97
2023-02-11T06:45:00.147Z,1012.07
2023-02-11T06:50:00.567Z,1012.06
2023-02-11T06:55:00.557Z,1012.12
2023-02-11T07:00:00.617Z,1012.3
2023-02-11T07:05:00.587Z,1012.2
2023-02-11T07:10:00.581Z,1012.07
2023-02-11T07:15:00.145Z,1012.01
2023-02-11T07:20:00.570Z,1012.08
2023-02-11T07:25:00.147Z,1012.11
2023-02-11T07:30:00.238Z,1012.09
2023-02-11T07:35:00.234Z,1012.12
2023-02-11T07:40:00.554Z,1012.17
2023-02-11T07:45:00.553Z,1012.11
2023-02-11T07:50:00.137Z,1012.17
2023-02-11T07:55:02.137Z,1012.21
2023-02-11T08:00:00.584Z,1012.11
2023-02-11T08:05:00.172Z,1012.17
2023-02-11T08:10:00.550Z,1012.07
2023-02-11T08:15:00.103Z,1012.16
2023-02-11T08:20:00.576Z,1012.18
2023-02-11T08:25:00.545Z,1012.13
2023-02-11T08:30:00.154Z,1012.24
2023-02-11T08:35:00.122Z,1012.03
2023-02-11T08:40:00.573Z,1012.14
2023-02-11T08:45:00.184Z,1012.17
2023-02-11T08:50:00.587Z,1012.24
2023-02-11T08:55:00.543Z,1012.16
2023-02-11T09:00:00.221Z,1012.22
2023-02-11T09:05:00.221Z,1012.29
2023-02-11T09:10:00.137Z,1012.15
2023-02-11T09:15:00.131Z,1012.31
2023-02-11T09:20:00.204Z,1012.65
2023-02-11T09:25:00.128Z,1012.72
2023-02-11T09:30:00.141Z,1012.86
2023-02-11T09:35:00.123Z,1012.84
2023-02-11T09:40:00.125Z,1012.6
2023-02-11T09:45:00.161Z,1012.51
2023-02-11T09:50:00.116Z,1012.7
2023-02-11T09:55:00.124Z,1012.68
2023-02-11T10:00:00.150Z,1012.62
2023-02-11T10:05:00.136Z,1012.6
2023-02-11T10:10:00.130Z,1012.48
2023-02-11T10:15:00.124Z,1012.3
2023-02-11T10:20:00.143Z,1012.39
2023-02-11T10:25:00.235Z,1012.43
2023-02-11T10:30:00.138Z,1012.31
2023-02-11T10:35:00.110Z,1012.28
2023-02-11T10:40:00.110Z,1012.57
2023-02-11T10:45:00.159Z,1012.48
2023-02-11T10:50:00.121Z,1012.52
2023-02-11T10:55:00.149Z,1012.45
2023-02-11T11:00:00.136Z,1012.27
2023-02-11T11:05:00.199Z,1012.17
2023-02-11T11:10:00.166Z,1012.39
2023-02-11T11:15:00.104Z,1012.24
2023-02-11T11:20:00.123Z,1012.19
2023-02-11T11:25:00.154Z,1012.27
2023-02-11T11:30:00.158Z,1012.08
2023-02-11T11:35:00.147Z,1012.16
2023-02-11T11:40:00.145Z,1012.13
2023-02-11T11:45:00.141Z,1012.38
2023-02-11T11:50:00.135Z,1012.41
2023-02-11T11:55:00.134Z,1012.47
2023-02-11T12:00:00.139Z,1012.45
2023-02-11T12:05:00.225Z,1012.51
2023-02-11T12:10:00.154Z,1012.32
2023-02-11T12:15:00.182Z,1012.31
2023-02-11T12:20:00.119Z,1012.56
2023-02-11T12:25:00.179Z,1012.55
2023-02-11T12:30:00.163Z,1012.38
2023-02-11T12:35:00.115Z,1012.32
2023-02-11T12:40:00.162Z,1012.25
2023-02-11T12:45:00.163Z,1012.21
2023-02-11T12:50:00.114Z,1012.14
2023-02-11T12:55:00.106Z,1012.16
2023-02-11T13:00:00.135Z,1012.04
2023-02-11T13:05:00.133Z,1012.31
2023-02-11T13:10:00.166Z,1012.19
2023-02-11T13:15:00.140Z,1012.15
2023-02-11T13:20:00.127Z,1012.2
2023-02-11T13:25:00.134Z,1012.08
2023-02-11T13:30:02.411Z,1012.13
2023-02-11T13:35:00.138Z,1012.14
2023-02-11T13:40:00.147Z,1012.16
2023-02-11T13:45:00.179Z,1012.21
2023-02-11T13:50:00.121Z,1012.31
2023-02-11T13:55:00.102Z,1012.25
2023-02-11T14:00:00.155Z,1012.3
2023-02-11T14:05:00.126Z,1012.26
2023-02-11T14:10:00.125Z,1012.31
2023-02-11T14:15:02.613Z,1012.32
2023-02-11T14:20:00.128Z,1012.29
2023-02-11T14:25:00.121Z,1012.32
2023-02-11T14:30:00.120Z,1012.4
2023-02-11T14:35:00.129Z,1012.5
2023-02-11T14:40:00.139Z,1012.49
2023-02-11T14:45:00.120Z,1012.4
2023-02-11T14:50:00.098Z,1012.38
2023-02-11T14:55:00.123Z,1012.39
2023-02-11T15:00:00.301Z,1012.33
2023-02-11T15:05:00.141Z,1012.22
2023-02-11T15:10:00.148Z,1012.33
2023-02-11T15:15:00.120Z,1012.43
2023-02-11T15:20:00.149Z,1012.48
2023-02-11T15:25:00.167Z,1012.57
2023-02-11T15:30:00.172Z,1012.67
2023-02-11T15:35:00.119Z,1012.59
2023-02-11T15:40:00.130Z,1012.68
2023-02-11T15:45:00.138Z,1012.62
2023-02-11T15:50:00.207Z,1012.59
2023-02-11T15:55:00.113Z,1012.58
2023-02-11T16:00:00.121Z,1012.62
2023-02-11T16:05:00.134Z,1012.61
2023-02-11T16:10:00.173Z,1012.67
2023-02-11T16:15:00.147Z,1012.81
2023-02-11T16:20:00.147Z,1012.88
2023-02-11T16:25:00.205Z,1012.9
2023-02-11T16:30:00.143Z,1012.92
2023-02-11T16:35:00.124Z,1013.03
2023-02-11T16:40:00.162Z,1013.05
2023-02-11T16:45:00.130Z,1013.07
2023-02-11T16:50:00.131Z,1013.14
2023-02-11T16:55:00.171Z,1013.09
2023-02-11T17:00:00.182Z,1013.21
2023-02-11T17:05:00.133Z,1013.29
2023-02-11T17:10:00.228Z,1013.28
2023-02-11T17:15:00.125Z,1013.33
2023-02-11T17:20:00.201Z,1013.35
2023-02-11T17:25:00.154Z,1013.31
2023-02-11T17:30:00.148Z,1013.36
2023-02-11T17:35:00.105Z,1013.39
2023-02-11T17:40:00.136Z,1013.37
2023-02-11T17:45:00.167Z,1013.56
2023-02-11T17:50:00.173Z,1013.52
2023-02-11T17:55:00.108Z,1013.57
2023-02-11T18:00:00.137Z,1013.67
2023-02-11T18:05:00.232Z,1013.67
2023-02-11T18:10:00.226Z,1013.64
2023-02-11T18:15:00.129Z,1013.87
2023-02-11T18:20:00.136Z,1013.83
2023-02-11T18:25:00.142Z,1013.88
2023-02-11T18:30:00.138Z,1013.84
2023-02-11T18:35:00.125Z,1013.95
2023-02-11T18:40:00.139Z,1014.03
2023-02-11T18:45:00.115Z,1014.11
2023-02-11T18:50:00.128Z,1014.2
2023-02-11T18:55:00.135Z,1014.19
2023-02-11T19:00:00.175Z,1014.3
2023-02-11T19:05:00.139Z,1014.47
2023-02-11T19:10:00.201Z,1014.35
2023-02-11T19:15:00.164Z,1014.23
2023-02-11T19:20:00.148Z,1014.16
2023-02-11T19:25:00.152Z,1014.21
2023-02-11T19:30:00.171Z,1014.37
2023-02-11T19:35:00.131Z,1014.39
2023-02-11T19:40:00.121Z,1014.6
2023-02-11T19:45:00.134Z,1014.69
2023-02-11T19:50:00.123Z,1014.69
2023-02-11T19:55:00.149Z,1014.72
2023-02-11T20:00:00.141Z,1014.82
2023-02-11T20:05:00.168Z,1014.83
2023-02-11T20:10:00.224Z,1014.93
2023-02-11T20:15:00.113Z,1014.97
2023-02-11T20:20:00.121Z,1015.06
2023-02-11T20:25:00.119Z,1014.95
2023-02-11T20:30:00.171Z,1015.02
2023-02-11T20:35:00.123Z,1015.09
2023-02-11T20:40:00.130Z,1015.2
2023-02-11T20:45:00.126Z,1015.11
2023-02-11T20:50:00.101Z,1015.06
2023-02-11T20:55:00.112Z,1015.11
2023-02-11T21:00:00.157Z,1015.17
2023-02-11T21:05:00.127Z,1015.17
2023-02-11T21:10:00.125Z,1015.39
2023-02-11T21:15:00.118Z,1015.44
2023-02-11T21:20:00.119Z,1015.4
2023-02-11T21:25:00.145Z,1016.07
2023-02-11T21:30:00.196Z,1016.28
2023-02-11T21:35:02.241Z,1016.46
2023-02-11T21:40:00.158Z,1016.49
2023-02-11T21:45:00.156Z,1016.63
2023-02-11T21:50:00.132Z,1016.57
2023-02-11T21:55:00.151Z,1016.7
2023-02-11T22:00:00.157Z,1016.59
2023-02-11T22:05:00.234Z,1016.77
2023-02-11T22:10:00.146Z,1016.81
2023-02-11T22:15:00.139Z,1016.77
2023-02-11T22:20:00.144Z,1016.73
2023-02-11T22:25:00.573Z,1016.85
2023-02-11T22:30:00.145Z,1016.8
2023-02-11T22:35:00.109Z,1016.89
2023-02-11T22:40:00.192Z,1016.79
2023-02-11T22:45:00.144Z,1016.99
2023-02-11T22:50:00.143Z,1016.97
2023-02-11T22:55:00.103Z,1016.99
2023-02-11T23:00:00.186Z,1017.09
2023-02-11T23:05:00.147Z,1017.24
2023-02-11T23:10:00.107Z,1017.33
2023-02-11T23:15:00.115Z,1017.36
2023-02-11T23:20:00.143Z,1017.43
2023-02-11T23:25:00.129Z,1017.47
2023-02-11T23:30:00.245Z,1017.42
2023-02-11T23:35:00.120Z,1017.39
2023-02-11T23:40:00.113Z,1017.33
2023-02-11T23:45:00.141Z,1017.38
2023-02-11T23:50:00.122Z,1017.46
2023-02-11T23:55:00.129Z,1017.38
